sensor_id;sensor_type;location;lat;lon;timestamp;temperature;humidity
17607;DHT22;8922;52.240;20.980;2022-07-31T00:01:33;17.20;99.90
17607;DHT22;8922;52.240;20.980;2022-07-31T00:04:02;17.20;99.90
17607;DHT22;8922;52.240;20.980;2022-07-31T00:06:29;17.30;99.90
17607;DHT22;8922;52.240;20.980;2022-07-31T00:08:55;17.30;99.90
17607;DHT22;8922;52.240;20.980;2022-07-31T00:11:22;17.30;99.90
17607;DHT22;8922;52.240;20.980;2022-07-31T00:13:49;17.30;99.90
17607;DHT22;8922;52.240;20.980;2022-07-31T00:16:16;17.30;99.90
17607;DHT22;8922;52.240;20.980;2022-07-31T00:18:43;17.30;99.90
17607;DHT22;8922;52.240;20.980;2022-07-31T00:21:11;17.20;99.90
17607;DHT22;8922;52.240;20.980;2022-07-31T00:23:38;17.20;99.90
17607;DHT22;8922;52.240;20.980;2022-07-31T00:26:06;17.20;99.90
17607;DHT22;8922;52.240;20.980;2022-07-31T00:28:33;17.20;99.90
17607;DHT22;8922;52.240;20.980;2022-07-31T00:31:00;17.20;99.90
17607;DHT22;8922;52.240;20.980;2022-07-31T00:33:26;17.20;99.90
17607;DHT22;8922;52.240;20.980;2022-07-31T00:35:53;17.20;99.90
17607;DHT22;8922;52.240;20.980;2022-07-31T00:38:21;17.20;99.90
17607;DHT22;8922;52.240;20.980;2022-07-31T00:40:49;17.10;99.90
17607;DHT22;8922;52.240;20.980;2022-07-31T00:43:16;17.10;99.90
17607;DHT22;8922;52.240;20.980;2022-07-31T00:45:44;17.10;99.90
17607;DHT22;8922;52.240;20.980;2022-07-31T00:48:10;17.10;99.90
17607;DHT22;8922;52.240;20.980;2022-07-31T00:50:37;17.10;99.90
17607;DHT22;8922;52.240;20.980;2022-07-31T00:53:04;17.10;99.90
17607;DHT22;8922;52.240;20.980;2022-07-31T00:55:32;17.10;99.90
17607;DHT22;8922;52.240;20.980;2022-07-31T00:57:59;17.00;99.90
17607;DHT22;8922;52.240;20.980;2022-07-31T01:00:25;17.10;99.90
17607;DHT22;8922;52.240;20.980;2022-07-31T01:02:52;17.10;99.90
17607;DHT22;8922;52.240;20.980;2022-07-31T01:05:19;17.00;99.90
17607;DHT22;8922;52.240;20.980;2022-07-31T01:07:46;17.00;99.90
17607;DHT22;8922;52.240;20.980;2022-07-31T01:10:19;17.00;99.90
17607;DHT22;8922;52.240;20.980;2022-07-31T01:12:53;17.00;99.90
17607;DHT22;8922;52.240;20.980;2022-07-31T01:15:20;17.00;99.90
17607;DHT22;8922;52.240;20.980;2022-07-31T01:17:48;17.00;99.90
17607;DHT22;8922;52.240;20.980;2022-07-31T01:20:16;17.00;99.90
17607;DHT22;8922;52.240;20.980;2022-07-31T01:22:55;17.00;99.90
17607;DHT22;8922;52.240;20.980;2022-07-31T01:25:31;17.00;99.90
17607;DHT22;8922;52.240;20.980;2022-07-31T01:28:05;17.00;99.90
17607;DHT22;8922;52.240;20.980;2022-07-31T01:30:42;17.00;99.90
17607;DHT22;8922;52.240;20.980;2022-07-31T01:33:14;17.00;99.90
17607;DHT22;8922;52.240;20.980;2022-07-31T01:35:47;17.00;99.90
17607;DHT22;8922;52.240;20.980;2022-07-31T01:38:17;17.00;99.90
17607;DHT22;8922;52.240;20.980;2022-07-31T01:40:47;17.00;99.90
17607;DHT22;8922;52.240;20.980;2022-07-31T01:43:20;17.00;99.90
17607;DHT22;8922;52.240;20.980;2022-07-31T01:45:52;17.00;99.90
17607;DHT22;8922;52.240;20.980;2022-07-31T01:48:20;17.00;99.90
17607;DHT22;8922;52.240;20.980;2022-07-31T01:50:49;16.90;99.90
17607;DHT22;8922;52.240;20.980;2022-07-31T01:53:19;17.00;99.90
17607;DHT22;8922;52.240;20.980;2022-07-31T01:55:47;17.00;99.90
17607;DHT22;8922;52.240;20.980;2022-07-31T01:58:17;17.00;99.90
17607;DHT22;8922;52.240;20.980;2022-07-31T02:00:45;16.90;99.90
17607;DHT22;8922;52.240;20.980;2022-07-31T02:03:13;16.90;99.90
17607;DHT22;8922;52.240;20.980;2022-07-31T02:05:42;16.90;99.90
17607;DHT22;8922;52.240;20.980;2022-07-31T02:08:11;16.90;99.90
17607;DHT22;8922;52.240;20.980;2022-07-31T02:10:39;16.90;99.90
17607;DHT22;8922;52.240;20.980;2022-07-31T02:13:09;16.90;99.90
17607;DHT22;8922;52.240;20.980;2022-07-31T02:15:36;16.80;99.90
17607;DHT22;8922;52.240;20.980;2022-07-31T02:18:03;16.80;99.90
17607;DHT22;8922;52.240;20.980;2022-07-31T02:20:32;16.90;99.90
17607;DHT22;8922;52.240;20.980;2022-07-31T02:22:59;16.80;99.90
17607;DHT22;8922;52.240;20.980;2022-07-31T02:25:27;16.80;99.90
17607;DHT22;8922;52.240;20.980;2022-07-31T02:27:55;16.90;99.90
17607;DHT22;8922;52.240;20.980;2022-07-31T02:30:24;16.80;99.90
17607;DHT22;8922;52.240;20.980;2022-07-31T02:32:52;16.90;99.90
17607;DHT22;8922;52.240;20.980;2022-07-31T02:35:19;16.80;99.90
17607;DHT22;8922;52.240;20.980;2022-07-31T02:37:50;16.80;99.90
17607;DHT22;8922;52.240;20.980;2022-07-31T02:40:18;16.90;99.90
17607;DHT22;8922;52.240;20.980;2022-07-31T02:42:45;16.90;99.90
17607;DHT22;8922;52.240;20.980;2022-07-31T02:45:13;16.90;99.90
17607;DHT22;8922;52.240;20.980;2022-07-31T02:47:41;16.80;99.90
17607;DHT22;8922;52.240;20.980;2022-07-31T02:50:09;16.90;99.90
17607;DHT22;8922;52.240;20.980;2022-07-31T02:52:36;16.90;99.90
17607;DHT22;8922;52.240;20.980;2022-07-31T02:55:05;16.90;99.90
17607;DHT22;8922;52.240;20.980;2022-07-31T02:57:32;16.90;99.90
17607;DHT22;8922;52.240;20.980;2022-07-31T02:59:59;16.90;99.90
17607;DHT22;8922;52.240;20.980;2022-07-31T03:02:26;16.90;99.90
17607;DHT22;8922;52.240;20.980;2022-07-31T03:04:54;16.90;99.90
17607;DHT22;8922;52.240;20.980;2022-07-31T03:07:21;16.90;99.90
17607;DHT22;8922;52.240;20.980;2022-07-31T03:09:47;16.90;99.90
17607;DHT22;8922;52.240;20.980;2022-07-31T03:12:16;16.90;99.90
17607;DHT22;8922;52.240;20.980;2022-07-31T03:14:43;16.90;99.90
17607;DHT22;8922;52.240;20.980;2022-07-31T03:17:10;16.90;99.90
17607;DHT22;8922;52.240;20.980;2022-07-31T03:19:37;16.90;99.90
17607;DHT22;8922;52.240;20.980;2022-07-31T03:22:04;16.90;99.90
17607;DHT22;8922;52.240;20.980;2022-07-31T03:24:31;16.90;99.90
17607;DHT22;8922;52.240;20.980;2022-07-31T03:26:58;16.90;99.90
17607;DHT22;8922;52.240;20.980;2022-07-31T03:29:36;16.90;99.90
17607;DHT22;8922;52.240;20.980;2022-07-31T03:32:03;16.90;99.90
17607;DHT22;8922;52.240;20.980;2022-07-31T03:34:30;16.90;99.90
17607;DHT22;8922;52.240;20.980;2022-07-31T03:36:57;16.90;99.90
17607;DHT22;8922;52.240;20.980;2022-07-31T03:39:24;17.00;99.90
17607;DHT22;8922;52.240;20.980;2022-07-31T03:41:51;16.90;99.90
17607;DHT22;8922;52.240;20.980;2022-07-31T03:44:20;16.90;99.90
17607;DHT22;8922;52.240;20.980;2022-07-31T03:46:48;16.90;99.90
17607;DHT22;8922;52.240;20.980;2022-07-31T03:49:15;16.90;99.90
17607;DHT22;8922;52.240;20.980;2022-07-31T03:51:42;16.90;99.90
17607;DHT22;8922;52.240;20.980;2022-07-31T03:54:10;16.90;99.90
17607;DHT22;8922;52.240;20.980;2022-07-31T03:56:37;16.90;99.90
17607;DHT22;8922;52.240;20.980;2022-07-31T03:59:05;16.90;99.90
17607;DHT22;8922;52.240;20.980;2022-07-31T04:01:33;16.90;99.90
17607;DHT22;8922;52.240;20.980;2022-07-31T04:04:01;16.90;99.90
17607;DHT22;8922;52.240;20.980;2022-07-31T04:06:28;16.90;99.90
17607;DHT22;8922;52.240;20.980;2022-07-31T04:08:55;16.90;99.90
17607;DHT22;8922;52.240;20.980;2022-07-31T04:11:21;16.90;99.90
17607;DHT22;8922;52.240;20.980;2022-07-31T04:13:48;16.90;99.90
17607;DHT22;8922;52.240;20.980;2022-07-31T04:16:15;16.90;99.90
17607;DHT22;8922;52.240;20.980;2022-07-31T04:18:41;16.90;99.90
17607;DHT22;8922;52.240;20.980;2022-07-31T04:21:10;16.80;99.90
17607;DHT22;8922;52.240;20.980;2022-07-31T04:23:37;16.80;99.90
17607;DHT22;8922;52.240;20.980;2022-07-31T04:26:04;16.80;99.90
17607;DHT22;8922;52.240;20.980;2022-07-31T04:28:30;16.80;99.90
17607;DHT22;8922;52.240;20.980;2022-07-31T04:30:58;16.80;99.90
17607;DHT22;8922;52.240;20.980;2022-07-31T04:33:24;16.80;99.90
17607;DHT22;8922;52.240;20.980;2022-07-31T04:35:51;16.80;99.90
17607;DHT22;8922;52.240;20.980;2022-07-31T04:38:20;16.80;99.90
17607;DHT22;8922;52.240;20.980;2022-07-31T04:40:47;16.80;99.90
17607;DHT22;8922;52.240;20.980;2022-07-31T04:43:14;16.80;99.90
17607;DHT22;8922;52.240;20.980;2022-07-31T04:45:41;16.80;99.90
17607;DHT22;8922;52.240;20.980;2022-07-31T04:48:09;16.90;99.90
17607;DHT22;8922;52.240;20.980;2022-07-31T04:50:36;16.90;99.90
17607;DHT22;8922;52.240;20.980;2022-07-31T04:53:03;16.90;99.90
17607;DHT22;8922;52.240;20.980;2022-07-31T04:55:31;16.90;99.90
17607;DHT22;8922;52.240;20.980;2022-07-31T04:57:58;16.90;99.90
17607;DHT22;8922;52.240;20.980;2022-07-31T05:00:25;16.90;99.90
17607;DHT22;8922;52.240;20.980;2022-07-31T05:02:52;16.90;99.90
17607;DHT22;8922;52.240;20.980;2022-07-31T05:05:19;16.90;99.90
17607;DHT22;8922;52.240;20.980;2022-07-31T05:07:45;16.90;99.90
17607;DHT22;8922;52.240;20.980;2022-07-31T05:10:12;16.90;99.90
17607;DHT22;8922;52.240;20.980;2022-07-31T05:13:00;16.90;99.90
17607;DHT22;8922;52.240;20.980;2022-07-31T05:15:27;16.90;99.90
17607;DHT22;8922;52.240;20.980;2022-07-31T05:17:54;16.90;99.90
17607;DHT22;8922;52.240;20.980;2022-07-31T05:20:21;16.90;99.90
17607;DHT22;8922;52.240;20.980;2022-07-31T05:22:47;16.90;99.90
17607;DHT22;8922;52.240;20.980;2022-07-31T05:25:14;16.90;99.90
17607;DHT22;8922;52.240;20.980;2022-07-31T05:27:41;16.90;99.90
17607;DHT22;8922;52.240;20.980;2022-07-31T05:30:10;16.80;99.90
17607;DHT22;8922;52.240;20.980;2022-07-31T05:32:37;16.80;99.90
17607;DHT22;8922;52.240;20.980;2022-07-31T05:35:05;16.80;99.90
17607;DHT22;8922;52.240;20.980;2022-07-31T05:37:32;16.80;99.90
17607;DHT22;8922;52.240;20.980;2022-07-31T05:39:59;16.80;99.90
17607;DHT22;8922;52.240;20.980;2022-07-31T05:42:26;16.80;99.90
17607;DHT22;8922;52.240;20.980;2022-07-31T05:44:52;16.80;99.90
17607;DHT22;8922;52.240;20.980;2022-07-31T05:47:21;16.90;99.90
17607;DHT22;8922;52.240;20.980;2022-07-31T05:49:47;16.90;99.90
17607;DHT22;8922;52.240;20.980;2022-07-31T05:52:16;16.90;99.90
17607;DHT22;8922;52.240;20.980;2022-07-31T05:54:42;16.90;99.90
17607;DHT22;8922;52.240;20.980;2022-07-31T05:57:10;16.90;99.90
17607;DHT22;8922;52.240;20.980;2022-07-31T05:59:36;16.90;99.90
17607;DHT22;8922;52.240;20.980;2022-07-31T06:02:03;16.90;99.90
17607;DHT22;8922;52.240;20.980;2022-07-31T06:04:31;16.90;99.90
17607;DHT22;8922;52.240;20.980;2022-07-31T06:06:58;16.90;99.90
17607;DHT22;8922;52.240;20.980;2022-07-31T06:09:25;16.90;99.90
17607;DHT22;8922;52.240;20.980;2022-07-31T06:11:52;16.90;99.90
17607;DHT22;8922;52.240;20.980;2022-07-31T06:14:18;16.90;99.90
17607;DHT22;8922;52.240;20.980;2022-07-31T06:16:45;16.90;99.90
17607;DHT22;8922;52.240;20.980;2022-07-31T06:19:14;16.80;99.90
17607;DHT22;8922;52.240;20.980;2022-07-31T06:21:42;16.80;99.90
17607;DHT22;8922;52.240;20.980;2022-07-31T06:24:09;16.80;99.90
17607;DHT22;8922;52.240;20.980;2022-07-31T06:26:35;16.80;99.90
17607;DHT22;8922;52.240;20.980;2022-07-31T06:29:03;16.80;99.90
17607;DHT22;8922;52.240;20.980;2022-07-31T06:31:29;16.80;99.90
17607;DHT22;8922;52.240;20.980;2022-07-31T06:33:57;16.80;99.90
17607;DHT22;8922;52.240;20.980;2022-07-31T06:36:23;16.80;99.90
17607;DHT22;8922;52.240;20.980;2022-07-31T06:38:52;16.80;99.90
17607;DHT22;8922;52.240;20.980;2022-07-31T06:41:18;16.70;99.90
17607;DHT22;8922;52.240;20.980;2022-07-31T06:43:59;16.80;99.90
17607;DHT22;8922;52.240;20.980;2022-07-31T06:46:26;16.70;99.90
17607;DHT22;8922;52.240;20.980;2022-07-31T06:48:53;16.70;99.90
17607;DHT22;8922;52.240;20.980;2022-07-31T06:51:20;16.70;99.90
17607;DHT22;8922;52.240;20.980;2022-07-31T06:53:47;16.70;99.90
17607;DHT22;8922;52.240;20.980;2022-07-31T06:56:15;16.70;99.90
17607;DHT22;8922;52.240;20.980;2022-07-31T06:58:41;16.70;99.90
17607;DHT22;8922;52.240;20.980;2022-07-31T07:01:08;16.70;99.90
17607;DHT22;8922;52.240;20.980;2022-07-31T07:03:35;16.80;99.90
17607;DHT22;8922;52.240;20.980;2022-07-31T07:06:02;16.80;99.90
17607;DHT22;8922;52.240;20.980;2022-07-31T07:08:29;16.80;99.90
17607;DHT22;8922;52.240;20.980;2022-07-31T07:10:55;16.80;99.90
17607;DHT22;8922;52.240;20.980;2022-07-31T07:13:23;16.80;99.90
17607;DHT22;8922;52.240;20.980;2022-07-31T07:15:51;16.80;99.90
17607;DHT22;8922;52.240;20.980;2022-07-31T07:18:18;16.80;99.90
17607;DHT22;8922;52.240;20.980;2022-07-31T07:20:46;16.90;99.90
17607;DHT22;8922;52.240;20.980;2022-07-31T07:23:13;16.90;99.90
17607;DHT22;8922;52.240;20.980;2022-07-31T07:25:40;16.90;99.90
17607;DHT22;8922;52.240;20.980;2022-07-31T07:28:07;16.90;99.90
17607;DHT22;8922;52.240;20.980;2022-07-31T07:30:35;16.90;99.90
17607;DHT22;8922;52.240;20.980;2022-07-31T07:33:02;16.90;99.90
17607;DHT22;8922;52.240;20.980;2022-07-31T07:35:30;17.00;99.90
17607;DHT22;8922;52.240;20.980;2022-07-31T07:37:57;17.00;99.90
17607;DHT22;8922;52.240;20.980;2022-07-31T07:40:24;17.00;99.90
17607;DHT22;8922;52.240;20.980;2022-07-31T07:42:51;17.00;99.90
17607;DHT22;8922;52.240;20.980;2022-07-31T07:45:18;17.00;99.90
17607;DHT22;8922;52.240;20.980;2022-07-31T07:47:47;17.10;99.90
17607;DHT22;8922;52.240;20.980;2022-07-31T07:50:13;17.10;99.90
17607;DHT22;8922;52.240;20.980;2022-07-31T07:52:41;17.10;99.90
17607;DHT22;8922;52.240;20.980;2022-07-31T07:55:08;17.10;99.90
17607;DHT22;8922;52.240;20.980;2022-07-31T07:57:37;17.20;99.90
17607;DHT22;8922;52.240;20.980;2022-07-31T08:00:06;17.20;99.90
17607;DHT22;8922;52.240;20.980;2022-07-31T08:02:34;17.20;99.90
17607;DHT22;8922;52.240;20.980;2022-07-31T08:05:02;17.30;99.90
17607;DHT22;8922;52.240;20.980;2022-07-31T08:07:30;17.30;99.90
17607;DHT22;8922;52.240;20.980;2022-07-31T08:09:58;17.30;99.90
17607;DHT22;8922;52.240;20.980;2022-07-31T08:12:25;17.30;99.90
17607;DHT22;8922;52.240;20.980;2022-07-31T08:14:52;17.30;99.90
17607;DHT22;8922;52.240;20.980;2022-07-31T08:17:19;17.40;99.90
17607;DHT22;8922;52.240;20.980;2022-07-31T08:19:46;17.40;99.90
17607;DHT22;8922;52.240;20.980;2022-07-31T08:22:14;17.40;99.90
17607;DHT22;8922;52.240;20.980;2022-07-31T08:24:41;17.50;99.90
17607;DHT22;8922;52.240;20.980;2022-07-31T08:27:08;17.50;99.90
17607;DHT22;8922;52.240;20.980;2022-07-31T08:29:50;17.50;99.90
17607;DHT22;8922;52.240;20.980;2022-07-31T08:32:18;17.40;99.90
17607;DHT22;8922;52.240;20.980;2022-07-31T08:34:45;17.50;99.90
17607;DHT22;8922;52.240;20.980;2022-07-31T08:37:13;17.60;99.90
17607;DHT22;8922;52.240;20.980;2022-07-31T08:39:43;17.60;99.90
17607;DHT22;8922;52.240;20.980;2022-07-31T08:42:10;17.60;99.90
17607;DHT22;8922;52.240;20.980;2022-07-31T08:44:38;17.60;99.90
17607;DHT22;8922;52.240;20.980;2022-07-31T08:47:06;17.60;99.90
17607;DHT22;8922;52.240;20.980;2022-07-31T08:49:38;17.60;99.90
17607;DHT22;8922;52.240;20.980;2022-07-31T08:52:08;17.70;99.90
17607;DHT22;8922;52.240;20.980;2022-07-31T08:54:36;17.70;99.90
17607;DHT22;8922;52.240;20.980;2022-07-31T08:57:07;17.80;99.90
17607;DHT22;8922;52.240;20.980;2022-07-31T08:59:35;17.70;99.90
17607;DHT22;8922;52.240;20.980;2022-07-31T09:02:03;17.80;99.90
17607;DHT22;8922;52.240;20.980;2022-07-31T09:04:31;17.80;99.90
17607;DHT22;8922;52.240;20.980;2022-07-31T09:06:58;17.80;99.90
17607;DHT22;8922;52.240;20.980;2022-07-31T09:09:26;17.90;99.90
17607;DHT22;8922;52.240;20.980;2022-07-31T09:11:54;17.90;99.90
17607;DHT22;8922;52.240;20.980;2022-07-31T09:14:26;18.00;99.90
17607;DHT22;8922;52.240;20.980;2022-07-31T09:16:53;18.00;99.90
17607;DHT22;8922;52.240;20.980;2022-07-31T09:19:21;18.00;99.90
17607;DHT22;8922;52.240;20.980;2022-07-31T09:21:49;18.00;99.90
17607;DHT22;8922;52.240;20.980;2022-07-31T09:24:27;18.00;99.90
17607;DHT22;8922;52.240;20.980;2022-07-31T09:27:02;18.10;99.90
17607;DHT22;8922;52.240;20.980;2022-07-31T09:29:33;18.10;99.90
17607;DHT22;8922;52.240;20.980;2022-07-31T09:32:07;18.00;99.90
17607;DHT22;8922;52.240;20.980;2022-07-31T09:34:34;18.10;99.90
17607;DHT22;8922;52.240;20.980;2022-07-31T09:37:07;18.20;99.90
17607;DHT22;8922;52.240;20.980;2022-07-31T09:39:35;18.20;99.90
17607;DHT22;8922;52.240;20.980;2022-07-31T09:42:03;18.30;99.90
17607;DHT22;8922;52.240;20.980;2022-07-31T09:44:40;18.30;99.90
17607;DHT22;8922;52.240;20.980;2022-07-31T09:47:18;18.30;99.90
17607;DHT22;8922;52.240;20.980;2022-07-31T09:49:51;18.30;99.90
17607;DHT22;8922;52.240;20.980;2022-07-31T09:52:19;18.30;99.90
17607;DHT22;8922;52.240;20.980;2022-07-31T09:54:46;18.30;99.90
17607;DHT22;8922;52.240;20.980;2022-07-31T09:57:15;18.40;99.90
17607;DHT22;8922;52.240;20.980;2022-07-31T09:59:42;18.40;99.90
17607;DHT22;8922;52.240;20.980;2022-07-31T10:02:12;18.30;99.90
17607;DHT22;8922;52.240;20.980;2022-07-31T10:04:42;18.30;99.90
17607;DHT22;8922;52.240;20.980;2022-07-31T10:07:11;18.30;99.90
17607;DHT22;8922;52.240;20.980;2022-07-31T10:09:39;18.30;99.90
17607;DHT22;8922;52.240;20.980;2022-07-31T10:12:12;18.40;99.90
17607;DHT22;8922;52.240;20.980;2022-07-31T10:14:43;18.50;99.90
17607;DHT22;8922;52.240;20.980;2022-07-31T10:17:11;18.50;99.90
17607;DHT22;8922;52.240;20.980;2022-07-31T10:19:41;18.50;99.90
17607;DHT22;8922;52.240;20.980;2022-07-31T10:22:12;18.50;99.90
17607;DHT22;8922;52.240;20.980;2022-07-31T10:24:45;18.50;99.90
17607;DHT22;8922;52.240;20.980;2022-07-31T10:27:14;18.40;99.90
17607;DHT22;8922;52.240;20.980;2022-07-31T10:29:45;18.40;99.90
17607;DHT22;8922;52.240;20.980;2022-07-31T10:32:12;18.50;99.90
17607;DHT22;8922;52.240;20.980;2022-07-31T10:34:39;18.50;99.90
17607;DHT22;8922;52.240;20.980;2022-07-31T10:37:08;18.50;99.90
17607;DHT22;8922;52.240;20.980;2022-07-31T10:39:42;18.60;99.90
17607;DHT22;8922;52.240;20.980;2022-07-31T10:42:17;18.60;99.90
17607;DHT22;8922;52.240;20.980;2022-07-31T10:44:50;18.60;99.90
17607;DHT22;8922;52.240;20.980;2022-07-31T10:47:18;18.50;99.90
17607;DHT22;8922;52.240;20.980;2022-07-31T10:49:48;18.50;99.90
17607;DHT22;8922;52.240;20.980;2022-07-31T10:52:25;18.60;99.90
17607;DHT22;8922;52.240;20.980;2022-07-31T10:54:52;18.60;99.90
17607;DHT22;8922;52.240;20.980;2022-07-31T10:57:23;18.60;99.90
17607;DHT22;8922;52.240;20.980;2022-07-31T10:59:52;18.60;99.90
17607;DHT22;8922;52.240;20.980;2022-07-31T11:02:28;18.60;99.90
17607;DHT22;8922;52.240;20.980;2022-07-31T11:05:06;18.50;99.90
17607;DHT22;8922;52.240;20.980;2022-07-31T11:07:33;18.70;99.90
17607;DHT22;8922;52.240;20.980;2022-07-31T11:10:08;18.60;99.90
17607;DHT22;8922;52.240;20.980;2022-07-31T11:12:35;18.60;99.90
17607;DHT22;8922;52.240;20.980;2022-07-31T11:15:15;18.70;99.90
17607;DHT22;8922;52.240;20.980;2022-07-31T11:17:42;18.70;99.90
17607;DHT22;8922;52.240;20.980;2022-07-31T11:20:17;18.80;99.90
17607;DHT22;8922;52.240;20.980;2022-07-31T11:22:58;18.80;99.90
17607;DHT22;8922;52.240;20.980;2022-07-31T11:25:26;18.80;99.90
17607;DHT22;8922;52.240;20.980;2022-07-31T11:27:55;18.80;99.90
17607;DHT22;8922;52.240;20.980;2022-07-31T11:30:24;18.80;99.90
17607;DHT22;8922;52.240;20.980;2022-07-31T11:32:52;18.80;99.90
17607;DHT22;8922;52.240;20.980;2022-07-31T11:35:29;18.80;99.90
17607;DHT22;8922;52.240;20.980;2022-07-31T11:37:57;18.80;99.90
17607;DHT22;8922;52.240;20.980;2022-07-31T11:40:24;18.70;99.90
17607;DHT22;8922;52.240;20.980;2022-07-31T11:42:51;18.70;99.90
17607;DHT22;8922;52.240;20.980;2022-07-31T11:45:19;18.60;99.90
17607;DHT22;8922;52.240;20.980;2022-07-31T11:47:47;18.60;99.90
17607;DHT22;8922;52.240;20.980;2022-07-31T11:50:16;18.60;99.90
17607;DHT22;8922;52.240;20.980;2022-07-31T11:52:43;18.70;99.90
17607;DHT22;8922;52.240;20.980;2022-07-31T11:55:13;18.70;99.90
17607;DHT22;8922;52.240;20.980;2022-07-31T11:57:42;18.70;99.90
17607;DHT22;8922;52.240;20.980;2022-07-31T12:00:11;18.80;99.90
17607;DHT22;8922;52.240;20.980;2022-07-31T12:02:42;18.80;99.90
17607;DHT22;8922;52.240;20.980;2022-07-31T12:05:12;18.70;99.90
17607;DHT22;8922;52.240;20.980;2022-07-31T12:07:40;18.70;99.90
17607;DHT22;8922;52.240;20.980;2022-07-31T12:10:09;18.70;99.90
17607;DHT22;8922;52.240;20.980;2022-07-31T12:12:37;18.60;99.90
17607;DHT22;8922;52.240;20.980;2022-07-31T12:15:15;18.60;99.90
17607;DHT22;8922;52.240;20.980;2022-07-31T12:17:42;18.60;99.90
17607;DHT22;8922;52.240;20.980;2022-07-31T12:20:12;18.60;99.90
17607;DHT22;8922;52.240;20.980;2022-07-31T12:22:39;18.70;99.90
17607;DHT22;8922;52.240;20.980;2022-07-31T12:25:07;18.70;99.90
17607;DHT22;8922;52.240;20.980;2022-07-31T12:27:37;18.70;99.90
17607;DHT22;8922;52.240;20.980;2022-07-31T12:30:14;18.80;99.90
17607;DHT22;8922;52.240;20.980;2022-07-31T12:32:41;18.80;99.90
17607;DHT22;8922;52.240;20.980;2022-07-31T12:35:08;18.80;99.90
17607;DHT22;8922;52.240;20.980;2022-07-31T12:37:44;18.80;99.90
17607;DHT22;8922;52.240;20.980;2022-07-31T12:40:23;18.80;99.90
17607;DHT22;8922;52.240;20.980;2022-07-31T12:42:50;18.70;99.90
17607;DHT22;8922;52.240;20.980;2022-07-31T12:45:31;18.70;99.90
17607;DHT22;8922;52.240;20.980;2022-07-31T12:48:00;18.80;99.90
17607;DHT22;8922;52.240;20.980;2022-07-31T12:50:28;18.80;99.90
17607;DHT22;8922;52.240;20.980;2022-07-31T12:52:59;18.80;99.90
17607;DHT22;8922;52.240;20.980;2022-07-31T12:55:27;18.90;99.90
17607;DHT22;8922;52.240;20.980;2022-07-31T12:57:55;18.90;99.90
17607;DHT22;8922;52.240;20.980;2022-07-31T13:00:24;18.90;99.90
17607;DHT22;8922;52.240;20.980;2022-07-31T13:02:52;18.80;99.90
17607;DHT22;8922;52.240;20.980;2022-07-31T13:05:19;18.90;99.90
17607;DHT22;8922;52.240;20.980;2022-07-31T13:07:46;18.80;99.90
17607;DHT22;8922;52.240;20.980;2022-07-31T13:10:15;18.90;99.90
17607;DHT22;8922;52.240;20.980;2022-07-31T13:12:42;18.80;99.90
17607;DHT22;8922;52.240;20.980;2022-07-31T13:15:09;18.80;99.90
17607;DHT22;8922;52.240;20.980;2022-07-31T13:17:36;18.80;99.90
17607;DHT22;8922;52.240;20.980;2022-07-31T13:20:04;18.70;99.90
17607;DHT22;8922;52.240;20.980;2022-07-31T13:22:31;18.70;99.90
17607;DHT22;8922;52.240;20.980;2022-07-31T13:24:57;18.60;99.90
17607;DHT22;8922;52.240;20.980;2022-07-31T13:27:26;18.60;99.90
17607;DHT22;8922;52.240;20.980;2022-07-31T13:29:53;18.60;99.90
17607;DHT22;8922;52.240;20.980;2022-07-31T13:32:19;18.60;99.90
17607;DHT22;8922;52.240;20.980;2022-07-31T13:34:46;18.60;99.90
17607;DHT22;8922;52.240;20.980;2022-07-31T13:37:13;18.50;99.90
17607;DHT22;8922;52.240;20.980;2022-07-31T13:39:40;18.60;99.90
17607;DHT22;8922;52.240;20.980;2022-07-31T13:42:07;18.70;99.90
17607;DHT22;8922;52.240;20.980;2022-07-31T13:44:35;18.60;99.90
17607;DHT22;8922;52.240;20.980;2022-07-31T13:47:01;18.50;99.90
17607;DHT22;8922;52.240;20.980;2022-07-31T13:49:28;18.50;99.90
17607;DHT22;8922;52.240;20.980;2022-07-31T13:51:58;18.50;99.90
17607;DHT22;8922;52.240;20.980;2022-07-31T13:54:25;18.50;99.90
17607;DHT22;8922;52.240;20.980;2022-07-31T13:56:52;18.50;99.90
17607;DHT22;8922;52.240;20.980;2022-07-31T13:59:20;18.50;99.90
17607;DHT22;8922;52.240;20.980;2022-07-31T14:01:48;18.50;99.90
17607;DHT22;8922;52.240;20.980;2022-07-31T14:04:17;18.40;99.90
17607;DHT22;8922;52.240;20.980;2022-07-31T14:06:44;18.40;99.90
17607;DHT22;8922;52.240;20.980;2022-07-31T14:09:11;18.40;99.90
17607;DHT22;8922;52.240;20.980;2022-07-31T14:11:38;18.40;99.90
17607;DHT22;8922;52.240;20.980;2022-07-31T14:14:05;18.40;99.90
17607;DHT22;8922;52.240;20.980;2022-07-31T14:16:31;18.40;99.90
17607;DHT22;8922;52.240;20.980;2022-07-31T14:19:00;18.30;99.90
17607;DHT22;8922;52.240;20.980;2022-07-31T14:21:26;18.30;99.90
17607;DHT22;8922;52.240;20.980;2022-07-31T14:23:53;18.30;99.90
17607;DHT22;8922;52.240;20.980;2022-07-31T14:26:20;18.30;99.90
17607;DHT22;8922;52.240;20.980;2022-07-31T14:28:47;18.30;99.90
17607;DHT22;8922;52.240;20.980;2022-07-31T14:31:14;18.20;99.90
17607;DHT22;8922;52.240;20.980;2022-07-31T14:33:41;18.30;99.90
17607;DHT22;8922;52.240;20.980;2022-07-31T14:36:09;18.20;99.90
17607;DHT22;8922;52.240;20.980;2022-07-31T14:38:36;18.20;99.90
17607;DHT22;8922;52.240;20.980;2022-07-31T14:41:03;18.20;99.90
17607;DHT22;8922;52.240;20.980;2022-07-31T14:43:31;18.10;99.90
17607;DHT22;8922;52.240;20.980;2022-07-31T14:45:58;18.10;99.90
17607;DHT22;8922;52.240;20.980;2022-07-31T14:48:25;18.00;99.90
17607;DHT22;8922;52.240;20.980;2022-07-31T14:50:52;18.00;99.90
17607;DHT22;8922;52.240;20.980;2022-07-31T14:53:20;18.00;99.90
17607;DHT22;8922;52.240;20.980;2022-07-31T14:55:47;18.10;99.90
17607;DHT22;8922;52.240;20.980;2022-07-31T14:58:14;18.10;99.90
17607;DHT22;8922;52.240;20.980;2022-07-31T15:00:41;18.00;99.90
17607;DHT22;8922;52.240;20.980;2022-07-31T15:03:08;18.00;99.90
17607;DHT22;8922;52.240;20.980;2022-07-31T15:05:35;18.00;99.90
17607;DHT22;8922;52.240;20.980;2022-07-31T15:08:01;18.00;99.90
17607;DHT22;8922;52.240;20.980;2022-07-31T15:10:30;18.00;99.90
17607;DHT22;8922;52.240;20.980;2022-07-31T15:12:56;18.00;99.90
17607;DHT22;8922;52.240;20.980;2022-07-31T15:15:23;18.00;99.90
17607;DHT22;8922;52.240;20.980;2022-07-31T15:17:50;18.00;99.90
17607;DHT22;8922;52.240;20.980;2022-07-31T15:20:17;18.00;99.90
17607;DHT22;8922;52.240;20.980;2022-07-31T15:22:44;18.00;99.90
17607;DHT22;8922;52.240;20.980;2022-07-31T15:25:10;18.00;99.90
17607;DHT22;8922;52.240;20.980;2022-07-31T15:27:40;18.00;99.90
17607;DHT22;8922;52.240;20.980;2022-07-31T15:30:08;18.10;99.90
17607;DHT22;8922;52.240;20.980;2022-07-31T15:32:36;18.00;99.90
17607;DHT22;8922;52.240;20.980;2022-07-31T15:35:04;18.00;99.90
17607;DHT22;8922;52.240;20.980;2022-07-31T15:37:35;18.00;99.90